createdAt,value
2023-02-26T00:01:38.034Z,101419.06
2023-02-26T00:05:41.045Z,101426.28
2023-02-26T00:09:43.976Z,101431.81
2023-02-26T00:13:49.212Z,101431.28
2023-02-26T00:18:00.512Z,101428.78
2023-02-26T00:22:05.357Z,101434.50
2023-02-26T00:26:08.593Z,101450.06
2023-02-26T00:30:14.115Z,101449.03
2023-02-26T00:34:17.482Z,101454.38
2023-02-26T00:38:20.837Z,101468.06
2023-02-26T00:42:24.422Z,101464.03
2023-02-26T00:46:39.520Z,101470.88
2023-02-26T00:50:49.302Z,101472.03
2023-02-26T00:54:52.697Z,101479.75
2023-02-26T00:58:55.933Z,101475.03
2023-02-26T01:03:01.045Z,101474.97
2023-02-26T01:07:04.688Z,101485.00
2023-02-26T01:11:08.252Z,101484.50
2023-02-26T01:15:12.375Z,101483.97
2023-02-26T01:19:25.478Z,101493.09
2023-02-26T01:23:32.869Z,101488.91
2023-02-26T01:27:36.217Z,101495.75
2023-02-26T01:31:47.453Z,101491.22
2023-02-26T01:35:56.729Z,101500.41
2023-02-26T01:40:33.139Z,101490.88
2023-02-26T01:44:42.754Z,101506.72
2023-02-26T01:48:51.127Z,101510.53
2023-02-26T01:53:17.527Z,101517.88
2023-02-26T01:57:23.066Z,101515.38
2023-02-26T02:01:26.315Z,101519.94
2023-02-26T02:05:34.058Z,101524.09
2023-02-26T02:09:38.620Z,101528.38
2023-02-26T02:13:59.017Z,101544.41
2023-02-26T02:18:06.895Z,101548.09
2023-02-26T02:22:21.969Z,101553.06
2023-02-26T02:26:46.636Z,101551.69
2023-02-26T02:31:03.387Z,101557.50
2023-02-26T02:35:13.189Z,101565.97
2023-02-26T02:39:24.140Z,101558.94
2023-02-26T02:43:33.617Z,101563.00
2023-02-26T02:47:41.723Z,101578.38
2023-02-26T02:51:50.534Z,101587.44
2023-02-26T02:55:59.420Z,101582.84
2023-02-26T03:00:09.089Z,101580.34
2023-02-26T03:04:16.090Z,101582.69
2023-02-26T03:08:23.268Z,101590.63
2023-02-26T03:12:27.140Z,101585.59
2023-02-26T03:17:07.411Z,101596.72
2023-02-26T03:21:21.194Z,101605.03
2023-02-26T03:25:28.339Z,101614.59
2023-02-26T03:29:53.170Z,101613.50
2023-02-26T03:34:00.268Z,101616.94
2023-02-26T03:38:10.624Z,101620.56
2023-02-26T03:42:23.950Z,101615.53
2023-02-26T03:46:36.856Z,101622.56
2023-02-26T03:50:46.083Z,101632.56
2023-02-26T03:55:23.072Z,101645.91
2023-02-26T03:59:52.602Z,101651.84
2023-02-26T04:04:19.153Z,101657.47
2023-02-26T04:08:23.536Z,101670.97
2023-02-26T04:12:30.008Z,101670.13
2023-02-26T04:16:33.365Z,101675.78
2023-02-26T04:20:36.793Z,101674.94
2023-02-26T04:24:39.854Z,101684.91
2023-02-26T04:28:44.524Z,101692.22
2023-02-26T04:32:48.012Z,101690.81
2023-02-26T04:36:51.896Z,101703.22
2023-02-26T04:40:56.182Z,101701.81
2023-02-26T04:45:01.774Z,101702.50
2023-02-26T04:49:05.949Z,101703.91
2023-02-26T04:53:09.709Z,101714.22
2023-02-26T04:57:14.269Z,101725.72
2023-02-26T05:01:19.300Z,101730.66
2023-02-26T05:05:22.663Z,101732.47
2023-02-26T05:09:25.720Z,101743.31
2023-02-26T05:13:28.730Z,101755.81
2023-02-26T05:17:34.031Z,101762.84
2023-02-26T05:21:37.260Z,101766.34
2023-02-26T05:25:40.495Z,101771.13
2023-02-26T05:29:45.008Z,101777.59
2023-02-26T05:33:51.304Z,101777.75
2023-02-26T05:37:54.419Z,101789.25
2023-02-26T05:41:57.315Z,101800.09
2023-02-26T05:46:00.950Z,101798.38
2023-02-26T05:50:06.519Z,101795.69
2023-02-26T05:54:09.762Z,101804.59
2023-02-26T05:58:13.151Z,101816.22
2023-02-26T06:02:16.367Z,101818.50
2023-02-26T06:06:21.747Z,101832.69
2023-02-26T06:10:24.904Z,101843.63
2023-02-26T06:14:27.958Z,101849.81
2023-02-26T06:18:32.262Z,101852.75
2023-02-26T06:22:36.647Z,101860.91
2023-02-26T06:26:39.912Z,101863.84
2023-02-26T06:30:42.883Z,101870.16
2023-02-26T06:34:45.814Z,101874.81
2023-02-26T06:38:50.195Z,101882.81
2023-02-26T06:42:53.155Z,101879.56
2023-02-26T06:46:56.047Z,101886.72
2023-02-26T06:50:59.068Z,101888.41
2023-02-26T06:55:03.456Z,101899.81
2023-02-26T06:59:06.661Z,101918.06
2023-02-26T07:03:13.105Z,101926.38
2023-02-26T07:07:16.068Z,101935.13
2023-02-26T07:11:20.365Z,101925.97
2023-02-26T07:15:23.500Z,101940.03
2023-02-26T07:19:26.569Z,101943.44
2023-02-26T07:23:29.865Z,101952.69
2023-02-26T07:27:34.424Z,101951.16
2023-02-26T07:31:37.410Z,101958.78
2023-02-26T07:35:41.007Z,101968.47
2023-02-26T07:39:43.918Z,101963.28
2023-02-26T07:43:48.287Z,101969.06
2023-02-26T07:47:52.549Z,101975.53
2023-02-26T07:51:55.818Z,101981.03
2023-02-26T07:55:58.619Z,101978.66
2023-02-26T08:00:04.791Z,101985.72
2023-02-26T08:04:15.355Z,101992.47
2023-02-26T08:08:18.345Z,101993.44
2023-02-26T08:12:21.439Z,101999.38
2023-02-26T08:16:26.570Z,101998.53
2023-02-26T08:20:29.871Z,102011.63
2023-02-26T08:24:33.452Z,102011.50
2023-02-26T08:28:36.802Z,102021.19
2023-02-26T08:32:42.403Z,102019.63
2023-02-26T08:36:45.619Z,102029.06
2023-02-26T08:40:50.319Z,102028.78
2023-02-26T08:44:53.366Z,102039.75
2023-02-26T08:48:57.780Z,102049.31
2023-02-26T08:53:00.872Z,102059.16
2023-02-26T08:57:03.841Z,102063.50
2023-02-26T09:01:07.047Z,102066.16
2023-02-26T09:05:12.917Z,102067.25
2023-02-26T09:09:16.264Z,102079.22
2023-02-26T09:13:19.549Z,102089.38
2023-02-26T09:17:22.535Z,102087.03
2023-02-26T09:21:26.898Z,102097.75
2023-02-26T09:25:29.817Z,102098.13
2023-02-26T09:29:32.747Z,102095.41
2023-02-26T09:33:36.505Z,102100.03
2023-02-26T09:37:41.108Z,102101.41
2023-02-26T09:41:48.563Z,102103.91
2023-02-26T09:45:52.697Z,102111.59
2023-02-26T09:50:02.026Z,102110.25
2023-02-26T09:54:16.964Z,102115.53
2023-02-26T09:58:25.032Z,102110.63
2023-02-26T10:02:37.904Z,102128.66
2023-02-26T10:06:51.023Z,102134.66
2023-02-26T10:11:04.987Z,102130.91
2023-02-26T10:15:14.342Z,102144.84
2023-02-26T10:19:20.746Z,102141.78
2023-02-26T10:23:29.801Z,102136.47
2023-02-26T10:27:48.310Z,102144.63
2023-02-26T10:32:03.211Z,102142.50
2023-02-26T10:36:16.614Z,102160.06
2023-02-26T10:40:25.660Z,102168.41
2023-02-26T10:44:38.453Z,102167.72
2023-02-26T10:48:55.740Z,102170.03
2023-02-26T10:52:59.861Z,102166.56
2023-02-26T10:57:04.082Z,102176.44
2023-02-26T11:01:17.163Z,102179.16
2023-02-26T11:05:23.695Z,102174.56
2023-02-26T11:09:28.685Z,102188.69
2023-02-26T11:13:34.869Z,102175.59
2023-02-26T11:17:39.527Z,102170.63
2023-02-26T11:21:46.207Z,102171.59
2023-02-26T11:25:54.338Z,102175.19
2023-02-26T11:29:59.617Z,102163.56
2023-02-26T11:34:06.790Z,102165.63
2023-02-26T11:38:19.769Z,102153.91
2023-02-26T11:42:22.960Z,102157.06
2023-02-26T11:46:28.733Z,102161.03
2023-02-26T11:50:43.147Z,102147.25
2023-02-26T11:54:47.764Z,102142.19
2023-02-26T11:58:55.453Z,102146.31
2023-02-26T12:03:04.366Z,102147.34
2023-02-26T12:07:14.986Z,102155.97
2023-02-26T12:11:43.776Z,102152.84
2023-02-26T12:15:58.325Z,102143.63
2023-02-26T12:20:15.322Z,102150.63
2023-02-26T12:24:41.029Z,102155.19
2023-02-26T12:29:23.894Z,102156.69
2023-02-26T12:33:39.362Z,102163.22
2023-02-26T12:37:53.008Z,102156.72
2023-02-26T12:42:09.959Z,102162.09
2023-02-26T12:46:24.476Z,102165.25
2023-02-26T12:50:48.377Z,102156.97
2023-02-26T12:55:05.400Z,102156.91
2023-02-26T12:59:41.488Z,102152.81
2023-02-26T13:04:13.928Z,102149.66
2023-02-26T13:08:24.446Z,102146.84
2023-02-26T13:12:38.646Z,102162.34
2023-02-26T13:16:51.698Z,102148.50
2023-02-26T13:21:00.515Z,102142.91
2023-02-26T13:25:07.430Z,102145.56
2023-02-26T13:29:17.925Z,102148.72
2023-02-26T13:33:28.098Z,102162.34
2023-02-26T13:37:33.838Z,102148.34
2023-02-26T13:41:46.210Z,102141.91
2023-02-26T13:45:59.457Z,102141.59
2023-02-26T13:50:28.495Z,102147.47
2023-02-26T13:54:43.646Z,102140.03
2023-02-26T13:58:53.179Z,102135.53
2023-02-26T14:02:58.516Z,102137.50
2023-02-26T14:07:11.856Z,102140.28
2023-02-26T14:11:42.089Z,102133.41
2023-02-26T14:15:53.858Z,102125.81
2023-02-26T14:20:18.923Z,102142.72
2023-02-26T14:24:35.944Z,102137.41
2023-02-26T14:28:45.435Z,102140.78
2023-02-26T14:32:54.040Z,102136.31
2023-02-26T14:37:00.826Z,102142.06
2023-02-26T14:41:10.991Z,102144.53
2023-02-26T14:45:27.332Z,102146.94
2023-02-26T14:49:33.620Z,102139.16
2023-02-26T14:54:15.014Z,102138.97
2023-02-26T14:58:38.071Z,102136.44
2023-02-26T15:03:06.231Z,102145.78
2023-02-26T15:07:23.093Z,102137.28
2023-02-26T15:11:38.851Z,102136.50
2023-02-26T15:15:53.381Z,102139.19
2023-02-26T15:20:06.891Z,102150.91
2023-02-26T15:24:14.370Z,102156.19
2023-02-26T15:28:30.140Z,102146.69
2023-02-26T15:32:41.083Z,102155.13
2023-02-26T15:36:46.598Z,102157.63
2023-02-26T15:40:51.530Z,102165.41
2023-02-26T15:45:03.023Z,102153.28
2023-02-26T15:49:11.934Z,102164.31
2023-02-26T15:53:22.414Z,102165.16
2023-02-26T15:57:27.432Z,102169.72
2023-02-26T16:01:32.452Z,102169.22
2023-02-26T16:05:38.670Z,102169.72
2023-02-26T16:09:43.470Z,102164.53
2023-02-26T16:13:49.853Z,102172.78
2023-02-26T16:17:56.893Z,102163.03
2023-02-26T16:22:06.014Z,102164.53
2023-02-26T16:26:14.873Z,102169.78
2023-02-26T16:30:38.736Z,102175.38
2023-02-26T16:34:45.379Z,102178.25
2023-02-26T16:38:52.244Z,102177.91
2023-02-26T16:43:02.232Z,102193.91
2023-02-26T16:47:05.564Z,102194.41
2023-02-26T16:51:12.567Z,102203.88
2023-02-26T16:55:19.331Z,102212.94
2023-02-26T16:59:25.601Z,102220.53
2023-02-26T17:03:31.041Z,102223.03
2023-02-26T17:07:36.482Z,102228.44
2023-02-26T17:11:45.652Z,102231.13
2023-02-26T17:15:49.159Z,102237.16
2023-02-26T17:19:53.058Z,102240.34
2023-02-26T17:24:01.887Z,102248.72
2023-02-26T17:28:07.298Z,102253.22
2023-02-26T17:32:19.797Z,102254.22
2023-02-26T17:36:22.673Z,102264.94
2023-02-26T17:40:28.063Z,102270.16
2023-02-26T17:44:32.208Z,102273.25
2023-02-26T17:48:35.586Z,102279.59
2023-02-26T17:52:38.394Z,102289.00
2023-02-26T17:56:42.177Z,102290.47
2023-02-26T18:00:49.917Z,102297.53
2023-02-26T18:04:53.082Z,102302.38
2023-02-26T18:08:55.968Z,102303.88
2023-02-26T18:12:59.587Z,102316.09
2023-02-26T18:17:04.070Z,102309.16
2023-02-26T18:21:06.997Z,102315.34
2023-02-26T18:25:12.651Z,102312.28
2023-02-26T18:29:15.470Z,102323.13
2023-02-26T18:33:20.574Z,102324.56
2023-02-26T18:37:26.163Z,102330.88
2023-02-26T18:41:29.362Z,102324.03
2023-02-26T18:45:32.346Z,102328.88
2023-02-26T18:49:36.939Z,102338.00
2023-02-26T18:53:40.502Z,102343.13
2023-02-26T18:57:43.523Z,102342.72
2023-02-26T19:01:47.137Z,102346.88
2023-02-26T19:05:58.765Z,102343.09
2023-02-26T19:10:02.324Z,102345.25
2023-02-26T19:14:05.563Z,102344.84
2023-02-26T19:18:08.428Z,102352.41
2023-02-26T19:22:14.889Z,102356.22
2023-02-26T19:26:17.755Z,102359.25
2023-02-26T19:30:21.557Z,102361.97
2023-02-26T19:34:24.591Z,102365.09
2023-02-26T19:38:28.764Z,102350.56
2023-02-26T19:42:31.618Z,102370.34
2023-02-26T19:46:36.001Z,102371.31
2023-02-26T19:50:38.912Z,102372.59
2023-02-26T19:54:43.148Z,102371.19
2023-02-26T19:58:46.051Z,102381.53
2023-02-26T20:02:48.975Z,102384.06
2023-02-26T20:06:51.907Z,102381.97
2023-02-26T20:10:58.284Z,102396.94
2023-02-26T20:15:01.112Z,102395.53
2023-02-26T20:19:03.986Z,102396.50
2023-02-26T20:23:06.781Z,102400.47
2023-02-26T20:27:11.017Z,102403.00
2023-02-26T20:31:14.038Z,102417.13
2023-02-26T20:35:17.004Z,102417.84
2023-02-26T20:39:21.027Z,102411.34
2023-02-26T20:43:25.965Z,102420.53
2023-02-26T20:47:28.832Z,102419.78
2023-02-26T20:51:32.138Z,102422.06
2023-02-26T20:55:35.083Z,102414.16
2023-02-26T20:59:39.369Z,102423.59
2023-02-26T21:03:42.220Z,102421.34
2023-02-26T21:07:45.446Z,102427.94
2023-02-26T21:11:48.460Z,102421.31
2023-02-26T21:15:52.668Z,102430.88
2023-02-26T21:19:55.665Z,102426.91
2023-02-26T21:23:58.488Z,102430.03
2023-02-26T21:28:01.316Z,102425.06
2023-02-26T21:32:07.110Z,102443.25
2023-02-26T21:36:11.463Z,102436.59
2023-02-26T21:40:15.968Z,102433.31
2023-02-26T21:44:18.830Z,102447.00
2023-02-26T21:48:23.901Z,102443.59
2023-02-26T21:52:28.804Z,102445.41
2023-02-26T21:56:31.953Z,102445.56
2023-02-26T22:00:34.957Z,102453.59
2023-02-26T22:04:39.118Z,102454.97
2023-02-26T22:08:41.955Z,102449.75
2023-02-26T22:12:44.824Z,102457.78
2023-02-26T22:16:47.784Z,102456.94
2023-02-26T22:20:52.019Z,102453.56
2023-02-26T22:24:54.835Z,102466.34
2023-02-26T22:28:59.680Z,102454.81
2023-02-26T22:33:02.528Z,102456.91
2023-02-26T22:37:06.698Z,102455.47
2023-02-26T22:41:09.518Z,102451.25
2023-02-26T22:45:13.536Z,102459.38
2023-02-26T22:49:16.727Z,102469.38
2023-02-26T22:53:20.894Z,102477.56
2023-02-26T22:57:23.697Z,102484.97
2023-02-26T23:01:26.619Z,102494.13
2023-02-26T23:05:29.565Z,102494.50
2023-02-26T23:09:33.827Z,102496.75
2023-02-26T23:13:38.109Z,102495.31
2023-02-26T23:17:41.471Z,102496.53
2023-02-26T23:21:44.279Z,102497.03
2023-02-26T23:25:48.418Z,102500.84
2023-02-26T23:29:51.544Z,102496.00
2023-02-26T23:33:54.306Z,102502.59
2023-02-26T23:37:57.297Z,102502.00
2023-02-26T23:42:01.543Z,102497.78
2023-02-26T23:46:04.589Z,102505.19
2023-02-26T23:50:08.616Z,102502.88
2023-02-26T23:54:12.114Z,102516.53
2023-02-26T23:58:16.319Z,102521.28
